VIV321 MMMY-MMUN
Flight info
| Callsign | VIV321 |
|---|---|
| Flight time | 1h 56m |
| Altitude | 35000 |
| Route | URSUR1A MTY UT11 MATOL DCT BETAS DCT VOMAR VOMAR1A |
| Aircraft | A321/M-SDE3FGHIRWY/LB1 |
Departure
| Time | 2026-05-09 02:47 |
|---|---|
| Airport | Monterrey International Airport (MMMY) |
Arrival
| Time | 2026-05-09 04:43 |
|---|---|
| Airport | Cancún International Airport (MMUN) |
| Time | Latitude | Longitude | Altitude | Speed | Heading |
|---|---|---|---|---|---|
| 2026-05-09 02:26 | 25.78196 | -100.11921 | 1281 ft | 0 kts | 301° |
| 2026-05-09 02:36 | 25.78193 | -100.11916 | 1281 ft | 4 kts | 302° |
| 2026-05-09 02:36 | 25.78182 | -100.11896 | 1281 ft | 3 kts | 302° |
| 2026-05-09 02:36 | 25.78170 | -100.11877 | 1281 ft | 4 kts | 349° |
| 2026-05-09 02:37 | 25.78153 | -100.11880 | 1283 ft | 3 kts | 17° |
| 2026-05-09 02:37 | 25.78150 | -100.11881 | 1281 ft | 0 kts | 17° |
| 2026-05-09 02:40 | 25.78151 | -100.11880 | 1281 ft | 1 kts | 17° |
| 2026-05-09 02:40 | 25.78160 | -100.11878 | 1281 ft | 2 kts | 17° |
| 2026-05-09 02:40 | 25.78174 | -100.11872 | 1281 ft | 3 kts | 22° |
| 2026-05-09 02:41 | 25.78193 | -100.11860 | 1283 ft | 4 kts | 31° |
| 2026-05-09 02:41 | 25.78216 | -100.11844 | 1282 ft | 4 kts | 32° |
| 2026-05-09 02:41 | 25.78244 | -100.11824 | 1283 ft | 5 kts | 32° |
| 2026-05-09 02:41 | 25.78276 | -100.11802 | 1282 ft | 6 kts | 32° |
| 2026-05-09 02:42 | 25.78285 | -100.11795 | 1281 ft | 2 kts | 33° |
| 2026-05-09 02:42 | 25.78296 | -100.11787 | 1281 ft | 2 kts | 33° |
| 2026-05-09 02:42 | 25.78300 | -100.11784 | 1281 ft | 0 kts | 33° |
| 2026-05-09 02:43 | 25.78302 | -100.11783 | 1281 ft | 1 kts | 33° |
| 2026-05-09 02:43 | 25.78308 | -100.11779 | 1281 ft | 1 kts | 33° |
| 2026-05-09 02:43 | 25.78319 | -100.11771 | 1281 ft | 2 kts | 32° |
| 2026-05-09 02:44 | 25.78343 | -100.11754 | 1281 ft | 5 kts | 32° |
| 2026-05-09 02:44 | 25.78375 | -100.11732 | 1283 ft | 6 kts | 32° |
| 2026-05-09 02:44 | 25.78401 | -100.11707 | 1281 ft | 4 kts | 68° |
| 2026-05-09 02:44 | 25.78398 | -100.11681 | 1281 ft | 3 kts | 111° |
| 2026-05-09 02:45 | 25.78385 | -100.11659 | 1283 ft | 3 kts | 123° |
| 2026-05-09 02:45 | 25.78384 | -100.11657 | 1281 ft | 0 kts | 123° |
| 2026-05-09 02:46 | 25.78376 | -100.11644 | 1282 ft | 14 kts | 123° |
| 2026-05-09 02:46 | 25.78187 | -100.11308 | 1281 ft | 86 kts | 121° |
| 2026-05-09 02:46 | 25.77768 | -100.10546 | 1279 ft | 144 kts | 121° |
| 2026-05-09 02:46 | 25.77167 | -100.09460 | 1375 ft | 181 kts | 122° |
| 2026-05-09 02:47 | 25.76511 | -100.08285 | 2089 ft | 176 kts | 123° |
| 2026-05-09 02:47 | 25.75931 | -100.07104 | 2797 ft | 175 kts | 108° |
| 2026-05-09 02:47 | 25.75583 | -100.05767 | 3302 ft | 188 kts | 107° |
| 2026-05-09 02:47 | 25.75203 | -100.04288 | 3567 ft | 210 kts | 105° |
| 2026-05-09 02:48 | 25.74788 | -100.02671 | 3930 ft | 222 kts | 104° |
| 2026-05-09 02:48 | 25.74381 | -100.01089 | 4557 ft | 204 kts | 104° |
| 2026-05-09 02:48 | 25.74002 | -99.99625 | 5153 ft | 191 kts | 104° |
| 2026-05-09 02:48 | 25.73661 | -99.98260 | 5768 ft | 178 kts | 103° |
| 2026-05-09 02:49 | 25.73331 | -99.96995 | 6388 ft | 163 kts | 106° |
| 2026-05-09 02:49 | 25.73028 | -99.95822 | 6974 ft | 153 kts | 105° |
| 2026-05-09 02:49 | 25.72722 | -99.94639 | 7134 ft | 168 kts | 104° |
| 2026-05-09 02:49 | 25.72395 | -99.93351 | 7297 ft | 180 kts | 104° |
| 2026-05-09 02:50 | 25.72241 | -99.92739 | 7368 ft | 186 kts | 104° |
| 2026-05-09 02:50 | 25.71868 | -99.91261 | 7492 ft | 200 kts | 106° |
| 2026-05-09 02:50 | 25.71469 | -99.89750 | 7623 ft | 209 kts | 107° |
| 2026-05-09 02:50 | 25.71047 | -99.88168 | 7750 ft | 219 kts | 107° |
| 2026-05-09 02:51 | 25.70615 | -99.86499 | 7860 ft | 233 kts | 105° |
| 2026-05-09 02:51 | 25.70151 | -99.84702 | 7967 ft | 251 kts | 107° |
| 2026-05-09 02:51 | 25.69654 | -99.82758 | 8097 ft | 272 kts | 107° |
| 2026-05-09 02:51 | 25.69123 | -99.80691 | 8315 ft | 285 kts | 107° |
| 2026-05-09 02:52 | 25.68566 | -99.78553 | 8785 ft | 289 kts | 107° |
| 2026-05-09 02:52 | 25.68002 | -99.76403 | 9277 ft | 293 kts | 107° |
| 2026-05-09 02:52 | 25.67426 | -99.74229 | 9751 ft | 295 kts | 107° |
| 2026-05-09 02:52 | 25.66846 | -99.72024 | 10173 ft | 303 kts | 104° |
| 2026-05-09 02:53 | 25.66786 | -99.69639 | 10386 ft | 317 kts | 77° |
| 2026-05-09 02:53 | 25.67470 | -99.67405 | 11465 ft | 296 kts | 69° |
| 2026-05-09 02:53 | 25.68216 | -99.65301 | 12229 ft | 292 kts | 69° |
| 2026-05-09 02:53 | 25.68955 | -99.63228 | 12738 ft | 295 kts | 69° |
| 2026-05-09 02:54 | 25.69716 | -99.61101 | 13222 ft | 298 kts | 69° |
| 2026-05-09 02:54 | 25.70487 | -99.58948 | 13649 ft | 303 kts | 71° |
| 2026-05-09 02:54 | 25.70890 | -99.56666 | 14053 ft | 304 kts | 92° |
| 2026-05-09 02:54 | 25.70680 | -99.54333 | 14470 ft | 304 kts | 109° |
| 2026-05-09 02:55 | 25.69962 | -99.52119 | 14894 ft | 306 kts | 115° |
| 2026-05-09 02:55 | 25.69179 | -99.49902 | 15380 ft | 310 kts | 115° |
| 2026-05-09 02:55 | 25.68377 | -99.47659 | 15858 ft | 312 kts | 116° |
| 2026-05-09 02:55 | 25.67562 | -99.45419 | 16258 ft | 315 kts | 116° |
| 2026-05-09 02:56 | 25.66744 | -99.43143 | 16663 ft | 319 kts | 117° |
| 2026-05-09 02:56 | 25.65931 | -99.40845 | 17088 ft | 322 kts | 117° |
| 2026-05-09 02:56 | 25.65113 | -99.38515 | 17515 ft | 326 kts | 117° |
| 2026-05-09 02:56 | 25.64286 | -99.36169 | 17936 ft | 328 kts | 117° |
| 2026-05-09 02:57 | 25.63456 | -99.33832 | 18340 ft | 331 kts | 118° |
| 2026-05-09 02:57 | 25.62595 | -99.31421 | 18760 ft | 334 kts | 118° |
| 2026-05-09 02:57 | 25.61733 | -99.29022 | 19170 ft | 336 kts | 118° |
| 2026-05-09 02:57 | 25.60879 | -99.26640 | 19562 ft | 338 kts | 118° |
| 2026-05-09 02:58 | 25.60012 | -99.24212 | 19963 ft | 340 kts | 118° |
| 2026-05-09 02:58 | 25.59136 | -99.21763 | 20338 ft | 343 kts | 118° |
| 2026-05-09 02:58 | 25.58252 | -99.19300 | 20714 ft | 345 kts | 118° |
| 2026-05-09 02:58 | 25.57362 | -99.16819 | 21058 ft | 348 kts | 118° |
| 2026-05-09 02:59 | 25.56469 | -99.14325 | 21401 ft | 350 kts | 118° |
| 2026-05-09 02:59 | 25.55570 | -99.11813 | 21747 ft | 352 kts | 117° |
| 2026-05-09 02:59 | 25.54662 | -99.09280 | 22058 ft | 355 kts | 118° |
| 2026-05-09 02:59 | 25.53744 | -99.06728 | 22378 ft | 358 kts | 118° |
| 2026-05-09 03:00 | 25.52822 | -99.04164 | 22706 ft | 360 kts | 117° |
| 2026-05-09 03:00 | 25.51895 | -99.01584 | 23009 ft | 362 kts | 118° |
| 2026-05-09 03:00 | 25.50960 | -98.98986 | 23306 ft | 365 kts | 118° |
| 2026-05-09 03:00 | 25.50022 | -98.96374 | 23611 ft | 366 kts | 117° |
| 2026-05-09 03:01 | 25.49078 | -98.93742 | 23913 ft | 368 kts | 118° |
| 2026-05-09 03:01 | 25.48126 | -98.91098 | 24178 ft | 371 kts | 118° |
| 2026-05-09 03:01 | 25.47166 | -98.88442 | 24453 ft | 373 kts | 118° |
| 2026-05-09 03:01 | 25.46199 | -98.85772 | 24728 ft | 375 kts | 118° |
| 2026-05-09 03:02 | 25.45227 | -98.83086 | 24998 ft | 377 kts | 117° |
| 2026-05-09 03:02 | 25.44253 | -98.80393 | 25260 ft | 379 kts | 118° |
| 2026-05-09 03:02 | 25.43268 | -98.77676 | 25515 ft | 382 kts | 117° |
| 2026-05-09 03:02 | 25.42274 | -98.74938 | 25774 ft | 384 kts | 117° |
| 2026-05-09 03:03 | 25.41276 | -98.72190 | 26042 ft | 386 kts | 117° |
| 2026-05-09 03:03 | 25.40277 | -98.69429 | 26303 ft | 388 kts | 117° |
| 2026-05-09 03:03 | 25.39270 | -98.66648 | 26554 ft | 391 kts | 118° |
| 2026-05-09 03:03 | 25.38255 | -98.63850 | 26793 ft | 393 kts | 117° |
| 2026-05-09 03:04 | 25.37246 | -98.61077 | 27040 ft | 395 kts | 117° |
| 2026-05-09 03:04 | 25.36219 | -98.58256 | 27297 ft | 397 kts | 117° |
| 2026-05-09 03:04 | 25.35190 | -98.55415 | 27519 ft | 400 kts | 117° |
| 2026-05-09 03:04 | 25.34155 | -98.52557 | 27764 ft | 401 kts | 117° |
| 2026-05-09 03:05 | 25.33113 | -98.49686 | 28016 ft | 403 kts | 118° |
| 2026-05-09 03:05 | 25.32059 | -98.46794 | 28213 ft | 407 kts | 117° |
| 2026-05-09 03:05 | 25.31031 | -98.43864 | 28344 ft | 413 kts | 115° |
| 2026-05-09 03:05 | 25.30093 | -98.40842 | 28528 ft | 418 kts | 112° |
| 2026-05-09 03:06 | 25.29224 | -98.37767 | 28708 ft | 422 kts | 111° |
| 2026-05-09 03:06 | 25.28381 | -98.34636 | 28834 ft | 428 kts | 111° |
| 2026-05-09 03:06 | 25.27533 | -98.31462 | 28969 ft | 433 kts | 111° |
| 2026-05-09 03:06 | 25.26662 | -98.28262 | 29089 ft | 438 kts | 111° |
| 2026-05-09 03:07 | 25.25760 | -98.25026 | 29216 ft | 443 kts | 111° |
| 2026-05-09 03:07 | 25.24831 | -98.21762 | 29342 ft | 448 kts | 112° |
| 2026-05-09 03:07 | 25.23877 | -98.18462 | 29469 ft | 453 kts | 112° |
| 2026-05-09 03:07 | 25.22911 | -98.15133 | 29596 ft | 458 kts | 112° |
| 2026-05-09 03:08 | 25.21939 | -98.11768 | 29721 ft | 463 kts | 111° |
| 2026-05-09 03:08 | 25.20960 | -98.08363 | 29850 ft | 467 kts | 111° |
| 2026-05-09 03:08 | 25.19973 | -98.04928 | 29977 ft | 471 kts | 111° |
| 2026-05-09 03:08 | 25.18981 | -98.01469 | 30096 ft | 475 kts | 111° |
| 2026-05-09 03:09 | 25.17980 | -97.97974 | 30225 ft | 479 kts | 111° |
| 2026-05-09 03:09 | 25.16969 | -97.94451 | 30356 ft | 483 kts | 111° |
| 2026-05-09 03:09 | 25.15949 | -97.90906 | 30484 ft | 487 kts | 111° |
| 2026-05-09 03:09 | 25.14918 | -97.87334 | 30605 ft | 490 kts | 111° |
| 2026-05-09 03:10 | 25.13879 | -97.83734 | 30741 ft | 494 kts | 111° |
| 2026-05-09 03:10 | 25.12830 | -97.80102 | 30862 ft | 498 kts | 111° |
| 2026-05-09 03:10 | 25.12134 | -97.77696 | 30946 ft | 500 kts | 111° |
| 2026-05-09 03:10 | 25.10723 | -97.72824 | 31115 ft | 504 kts | 111° |
| 2026-05-09 03:11 | 25.09653 | -97.69130 | 31242 ft | 507 kts | 111° |
| 2026-05-09 03:11 | 25.08571 | -97.65419 | 31365 ft | 511 kts | 111° |
| 2026-05-09 03:11 | 25.07481 | -97.61675 | 31493 ft | 514 kts | 111° |
| 2026-05-09 03:11 | 25.06386 | -97.57916 | 31681 ft | 515 kts | 111° |
| 2026-05-09 03:12 | 25.05290 | -97.54153 | 31948 ft | 515 kts | 111° |
| 2026-05-09 03:12 | 25.04566 | -97.51662 | 32135 ft | 515 kts | 111° |
| 2026-05-09 03:12 | 25.03475 | -97.47904 | 32401 ft | 514 kts | 111° |
| 2026-05-09 03:12 | 25.02385 | -97.44146 | 32667 ft | 514 kts | 111° |
| 2026-05-09 03:13 | 25.00207 | -97.36665 | 33211 ft | 512 kts | 112° |
| 2026-05-09 03:13 | 24.99111 | -97.32930 | 33466 ft | 511 kts | 112° |
| 2026-05-09 03:13 | 24.98017 | -97.29206 | 33729 ft | 510 kts | 112° |
| 2026-05-09 03:14 | 24.96927 | -97.25493 | 33985 ft | 510 kts | 112° |
| 2026-05-09 03:14 | 24.95835 | -97.21773 | 34236 ft | 509 kts | 112° |
| 2026-05-09 03:14 | 24.94744 | -97.18057 | 34475 ft | 509 kts | 112° |
| 2026-05-09 03:14 | 24.93656 | -97.14352 | 34710 ft | 508 kts | 112° |
| 2026-05-09 03:15 | 24.91482 | -97.06952 | 34834 ft | 506 kts | 112° |
| 2026-05-09 03:15 | 24.89322 | -96.99634 | 34833 ft | 505 kts | 112° |
| 2026-05-09 03:16 | 24.87137 | -96.92273 | 34833 ft | 505 kts | 112° |
| 2026-05-09 03:16 | 24.84953 | -96.84927 | 34832 ft | 504 kts | 112° |
| 2026-05-09 03:17 | 24.82776 | -96.77593 | 34834 ft | 504 kts | 112° |
| 2026-05-09 03:17 | 24.80593 | -96.70255 | 34841 ft | 504 kts | 112° |
| 2026-05-09 03:18 | 24.78405 | -96.62927 | 34847 ft | 504 kts | 112° |
| 2026-05-09 03:18 | 24.76216 | -96.55596 | 34847 ft | 504 kts | 112° |
| 2026-05-09 03:19 | 24.74022 | -96.48283 | 34855 ft | 503 kts | 112° |
| 2026-05-09 03:19 | 24.71831 | -96.40982 | 34857 ft | 503 kts | 112° |
| 2026-05-09 03:20 | 24.69631 | -96.33681 | 34864 ft | 502 kts | 112° |
| 2026-05-09 03:20 | 24.67451 | -96.26436 | 34863 ft | 502 kts | 112° |
| 2026-05-09 03:21 | 24.65254 | -96.19156 | 34866 ft | 502 kts | 112° |
| 2026-05-09 03:21 | 24.63054 | -96.11882 | 34871 ft | 501 kts | 112° |
| 2026-05-09 03:22 | 24.60853 | -96.04624 | 34870 ft | 500 kts | 112° |
| 2026-05-09 03:22 | 24.58657 | -95.97365 | 34865 ft | 500 kts | 112° |
| 2026-05-09 03:23 | 24.56459 | -95.90136 | 34867 ft | 498 kts | 112° |
| 2026-05-09 03:23 | 24.54259 | -95.82920 | 34872 ft | 498 kts | 112° |
| 2026-05-09 03:24 | 24.52065 | -95.75761 | 34873 ft | 497 kts | 112° |
| 2026-05-09 03:24 | 24.49861 | -95.68568 | 34874 ft | 497 kts | 112° |
| 2026-05-09 03:25 | 24.47661 | -95.61367 | 34875 ft | 497 kts | 112° |
| 2026-05-09 03:25 | 24.45459 | -95.54179 | 34874 ft | 497 kts | 112° |
| 2026-05-09 03:26 | 24.43255 | -95.46995 | 34873 ft | 497 kts | 112° |
| 2026-05-09 03:26 | 24.41044 | -95.39817 | 34872 ft | 496 kts | 112° |
| 2026-05-09 03:27 | 24.38828 | -95.32634 | 34870 ft | 497 kts | 112° |
| 2026-05-09 03:27 | 24.36601 | -95.25460 | 34870 ft | 497 kts | 112° |
| 2026-05-09 03:28 | 24.34369 | -95.18291 | 34879 ft | 497 kts | 112° |
| 2026-05-09 03:28 | 24.32165 | -95.11166 | 34880 ft | 497 kts | 112° |
| 2026-05-09 03:29 | 24.29943 | -95.03993 | 34883 ft | 497 kts | 112° |
| 2026-05-09 03:29 | 24.27694 | -94.96815 | 34889 ft | 497 kts | 112° |
| 2026-05-09 03:30 | 24.25441 | -94.89659 | 34891 ft | 497 kts | 112° |
| 2026-05-09 03:30 | 24.23621 | -94.83830 | 34893 ft | 497 kts | 112° |
| 2026-05-09 03:31 | 24.21397 | -94.76702 | 34893 ft | 497 kts | 112° |
| 2026-05-09 03:31 | 24.19150 | -94.69555 | 34895 ft | 496 kts | 112° |
| 2026-05-09 03:32 | 24.16894 | -94.62416 | 34903 ft | 495 kts | 112° |
| 2026-05-09 03:32 | 24.14614 | -94.55292 | 34910 ft | 494 kts | 114° |
| 2026-05-09 03:33 | 24.12090 | -94.48313 | 34912 ft | 493 kts | 116° |
| 2026-05-09 03:33 | 24.09417 | -94.41425 | 34913 ft | 492 kts | 116° |
| 2026-05-09 03:34 | 24.06766 | -94.34529 | 34914 ft | 492 kts | 116° |
| 2026-05-09 03:34 | 24.04178 | -94.27604 | 34914 ft | 491 kts | 115° |
| 2026-05-09 03:35 | 24.01604 | -94.20685 | 34911 ft | 491 kts | 115° |
| 2026-05-09 03:35 | 23.99014 | -94.13784 | 34912 ft | 490 kts | 115° |
| 2026-05-09 03:36 | 23.96413 | -94.06903 | 34911 ft | 490 kts | 115° |
| 2026-05-09 03:36 | 23.93835 | -94.00062 | 34909 ft | 489 kts | 115° |
| 2026-05-09 03:37 | 23.91236 | -93.93190 | 34908 ft | 489 kts | 116° |
| 2026-05-09 03:37 | 23.88632 | -93.86327 | 34907 ft | 489 kts | 116° |
| 2026-05-09 03:38 | 23.86435 | -93.79275 | 34905 ft | 491 kts | 109° |
| 2026-05-09 03:38 | 23.84453 | -93.72134 | 34904 ft | 491 kts | 110° |
| 2026-05-09 03:39 | 23.82456 | -93.64999 | 34907 ft | 491 kts | 110° |
| 2026-05-09 03:39 | 23.80458 | -93.57861 | 34905 ft | 491 kts | 109° |
| 2026-05-09 03:40 | 23.78467 | -93.50725 | 34906 ft | 491 kts | 109° |
| 2026-05-09 03:40 | 23.76459 | -93.43593 | 34910 ft | 491 kts | 110° |
| 2026-05-09 03:41 | 23.74445 | -93.36471 | 34912 ft | 491 kts | 110° |
| 2026-05-09 03:41 | 23.72439 | -93.29354 | 34913 ft | 490 kts | 109° |
| 2026-05-09 03:42 | 23.70433 | -93.22246 | 34911 ft | 490 kts | 110° |
| 2026-05-09 03:42 | 23.68408 | -93.15136 | 34912 ft | 490 kts | 109° |
| 2026-05-09 03:43 | 23.66393 | -93.08033 | 34910 ft | 490 kts | 109° |
| 2026-05-09 03:43 | 23.64387 | -93.00932 | 34911 ft | 490 kts | 109° |
| 2026-05-09 03:44 | 23.62381 | -92.93877 | 34914 ft | 490 kts | 109° |
| 2026-05-09 03:44 | 23.60358 | -92.86786 | 34913 ft | 490 kts | 109° |
| 2026-05-09 03:45 | 23.58326 | -92.79694 | 34915 ft | 490 kts | 109° |
| 2026-05-09 03:45 | 23.56294 | -92.72602 | 34911 ft | 490 kts | 109° |
| 2026-05-09 03:46 | 23.54249 | -92.65507 | 34916 ft | 491 kts | 110° |
| 2026-05-09 03:46 | 23.52203 | -92.58415 | 34920 ft | 491 kts | 110° |
| 2026-05-09 03:47 | 23.50155 | -92.51320 | 34921 ft | 491 kts | 110° |
| 2026-05-09 03:47 | 23.48110 | -92.44224 | 34917 ft | 491 kts | 110° |
| 2026-05-09 03:48 | 23.46067 | -92.37128 | 34907 ft | 491 kts | 109° |
| 2026-05-09 03:48 | 23.44019 | -92.30029 | 34909 ft | 492 kts | 110° |
| 2026-05-09 03:49 | 23.41962 | -92.22924 | 34916 ft | 492 kts | 110° |
| 2026-05-09 03:49 | 23.39893 | -92.15827 | 34920 ft | 492 kts | 110° |
| 2026-05-09 03:50 | 23.37820 | -92.08718 | 34923 ft | 492 kts | 110° |
| 2026-05-09 03:50 | 23.35741 | -92.01628 | 34920 ft | 491 kts | 110° |
| 2026-05-09 03:51 | 23.33683 | -91.94594 | 34920 ft | 491 kts | 110° |
| 2026-05-09 03:51 | 23.31611 | -91.87516 | 34917 ft | 491 kts | 110° |
| 2026-05-09 03:52 | 23.29531 | -91.80431 | 34922 ft | 491 kts | 110° |
| 2026-05-09 03:52 | 23.27444 | -91.73357 | 34925 ft | 491 kts | 110° |
| 2026-05-09 03:53 | 23.25365 | -91.66281 | 34926 ft | 491 kts | 110° |
| 2026-05-09 03:53 | 23.23278 | -91.59201 | 34927 ft | 491 kts | 109° |
| 2026-05-09 03:54 | 23.21212 | -91.52185 | 34927 ft | 491 kts | 110° |
| 2026-05-09 03:54 | 23.19127 | -91.45122 | 34924 ft | 490 kts | 110° |
| 2026-05-09 03:55 | 23.17030 | -91.38069 | 34926 ft | 491 kts | 110° |
| 2026-05-09 03:55 | 23.14924 | -91.31018 | 34928 ft | 490 kts | 110° |
| 2026-05-09 03:56 | 23.12828 | -91.23973 | 34925 ft | 490 kts | 110° |
| 2026-05-09 03:56 | 23.10728 | -91.16934 | 34927 ft | 490 kts | 110° |
| 2026-05-09 03:57 | 23.08628 | -91.09906 | 34929 ft | 489 kts | 110° |
| 2026-05-09 03:57 | 23.06522 | -91.02886 | 34923 ft | 488 kts | 110° |
| 2026-05-09 03:58 | 23.04421 | -90.95868 | 34920 ft | 488 kts | 110° |
| 2026-05-09 03:58 | 23.02326 | -90.88913 | 34918 ft | 488 kts | 110° |
| 2026-05-09 03:59 | 23.00216 | -90.81910 | 34919 ft | 488 kts | 110° |
| 2026-05-09 03:59 | 22.98106 | -90.74912 | 34917 ft | 488 kts | 110° |
| 2026-05-09 04:00 | 22.95998 | -90.67928 | 34917 ft | 488 kts | 109° |
| 2026-05-09 04:00 | 22.94227 | -90.62067 | 34921 ft | 488 kts | 110° |
| 2026-05-09 04:01 | 22.92180 | -90.55244 | 34920 ft | 488 kts | 109° |
| 2026-05-09 04:01 | 22.90393 | -90.49386 | 34921 ft | 488 kts | 110° |
| 2026-05-09 04:02 | 22.88253 | -90.42395 | 34921 ft | 488 kts | 110° |
| 2026-05-09 04:02 | 22.86133 | -90.35455 | 34920 ft | 488 kts | 110° |
| 2026-05-09 04:03 | 22.84009 | -90.28474 | 34916 ft | 487 kts | 110° |
| 2026-05-09 04:03 | 22.81876 | -90.21501 | 34916 ft | 487 kts | 110° |
| 2026-05-09 04:04 | 22.79741 | -90.14534 | 34917 ft | 487 kts | 110° |
| 2026-05-09 04:04 | 22.77614 | -90.07568 | 34920 ft | 487 kts | 109° |
| 2026-05-09 04:05 | 22.75482 | -90.00622 | 34919 ft | 486 kts | 110° |
| 2026-05-09 04:05 | 22.73339 | -89.93672 | 34917 ft | 486 kts | 110° |
| 2026-05-09 04:06 | 22.71197 | -89.86735 | 34912 ft | 486 kts | 109° |
| 2026-05-09 04:06 | 22.69057 | -89.79801 | 34912 ft | 486 kts | 110° |
| 2026-05-09 04:07 | 22.66911 | -89.72863 | 34916 ft | 486 kts | 109° |
| 2026-05-09 04:07 | 22.64846 | -89.65902 | 34915 ft | 485 kts | 108° |
| 2026-05-09 04:08 | 22.62988 | -89.59448 | 34914 ft | 485 kts | 108° |
| 2026-05-09 04:08 | 22.61213 | -89.53342 | 34913 ft | 485 kts | 109° |
| 2026-05-09 04:09 | 22.59163 | -89.46387 | 34910 ft | 485 kts | 109° |
| 2026-05-09 04:09 | 22.57097 | -89.39432 | 34912 ft | 486 kts | 109° |
| 2026-05-09 04:10 | 22.55029 | -89.32482 | 34912 ft | 485 kts | 109° |
| 2026-05-09 04:10 | 22.52976 | -89.25535 | 34911 ft | 485 kts | 109° |
| 2026-05-09 04:11 | 22.50921 | -89.18592 | 34911 ft | 485 kts | 109° |
| 2026-05-09 04:11 | 22.48859 | -89.11644 | 34906 ft | 485 kts | 109° |
| 2026-05-09 04:12 | 22.46791 | -89.04694 | 34904 ft | 485 kts | 109° |
| 2026-05-09 04:12 | 22.44717 | -88.97763 | 34901 ft | 485 kts | 109° |
| 2026-05-09 04:13 | 22.42633 | -88.90821 | 34901 ft | 485 kts | 109° |
| 2026-05-09 04:13 | 22.40909 | -88.85071 | 34901 ft | 485 kts | 109° |
| 2026-05-09 04:14 | 22.38825 | -88.78101 | 33972 ft | 492 kts | 108° |
| 2026-05-09 04:14 | 22.37768 | -88.74590 | 33431 ft | 490 kts | 110° |
| 2026-05-09 04:14 | 22.36300 | -88.71249 | 32345 ft | 497 kts | 124° |
| 2026-05-09 04:15 | 22.34465 | -88.68107 | 31979 ft | 489 kts | 124° |
| 2026-05-09 04:15 | 22.32681 | -88.65014 | 31641 ft | 482 kts | 123° |
| 2026-05-09 04:15 | 22.30931 | -88.61945 | 31192 ft | 477 kts | 123° |
| 2026-05-09 04:15 | 22.29207 | -88.58901 | 30714 ft | 473 kts | 123° |
| 2026-05-09 04:16 | 22.27500 | -88.55882 | 30213 ft | 469 kts | 124° |
| 2026-05-09 04:16 | 22.25804 | -88.52890 | 29706 ft | 466 kts | 124° |
| 2026-05-09 04:16 | 22.24138 | -88.49960 | 29213 ft | 462 kts | 124° |
| 2026-05-09 04:16 | 22.22443 | -88.46985 | 28730 ft | 458 kts | 124° |
| 2026-05-09 04:17 | 22.20797 | -88.44100 | 28261 ft | 454 kts | 124° |
| 2026-05-09 04:17 | 22.19149 | -88.41216 | 27784 ft | 450 kts | 124° |
| 2026-05-09 04:17 | 22.17510 | -88.38356 | 27315 ft | 445 kts | 124° |
| 2026-05-09 04:17 | 22.15889 | -88.35532 | 26845 ft | 441 kts | 124° |
| 2026-05-09 04:18 | 22.14283 | -88.32726 | 26363 ft | 437 kts | 124° |
| 2026-05-09 04:18 | 22.12692 | -88.29946 | 25898 ft | 433 kts | 124° |
| 2026-05-09 04:18 | 22.11116 | -88.27194 | 25449 ft | 429 kts | 124° |
| 2026-05-09 04:18 | 22.09552 | -88.24471 | 24996 ft | 425 kts | 124° |
| 2026-05-09 04:19 | 22.08001 | -88.21780 | 24570 ft | 421 kts | 124° |
| 2026-05-09 04:19 | 22.06463 | -88.19109 | 24161 ft | 418 kts | 124° |
| 2026-05-09 04:19 | 22.05626 | -88.17649 | 23929 ft | 416 kts | 124° |
| 2026-05-09 04:19 | 22.04695 | -88.16017 | 23671 ft | 414 kts | 124° |
| 2026-05-09 04:20 | 22.03177 | -88.13359 | 23254 ft | 410 kts | 124° |
| 2026-05-09 04:20 | 22.01679 | -88.10748 | 22852 ft | 407 kts | 125° |
| 2026-05-09 04:20 | 22.00195 | -88.08166 | 22435 ft | 403 kts | 124° |
| 2026-05-09 04:20 | 21.98722 | -88.05610 | 22014 ft | 400 kts | 124° |
| 2026-05-09 04:21 | 21.97262 | -88.03080 | 21585 ft | 396 kts | 124° |
| 2026-05-09 04:21 | 21.95812 | -88.00569 | 21147 ft | 393 kts | 124° |
| 2026-05-09 04:21 | 21.92955 | -87.95615 | 20279 ft | 385 kts | 124° |
| 2026-05-09 04:22 | 21.91555 | -87.93186 | 19589 ft | 380 kts | 124° |
| 2026-05-09 04:22 | 21.90171 | -87.90782 | 18899 ft | 375 kts | 124° |
| 2026-05-09 04:22 | 21.88810 | -87.88414 | 18209 ft | 370 kts | 124° |
| 2026-05-09 04:22 | 21.87462 | -87.86075 | 17525 ft | 365 kts | 124° |
| 2026-05-09 04:23 | 21.86135 | -87.83780 | 16740 ft | 358 kts | 124° |
| 2026-05-09 04:23 | 21.84839 | -87.81540 | 16165 ft | 345 kts | 124° |
| 2026-05-09 04:23 | 21.83577 | -87.79361 | 15777 ft | 341 kts | 124° |
| 2026-05-09 04:23 | 21.82323 | -87.77201 | 15369 ft | 338 kts | 124° |
| 2026-05-09 04:24 | 21.81083 | -87.75064 | 14961 ft | 336 kts | 123° |
| 2026-05-09 04:24 | 21.79855 | -87.72943 | 14561 ft | 333 kts | 123° |
| 2026-05-09 04:24 | 21.78638 | -87.70836 | 14158 ft | 330 kts | 123° |
| 2026-05-09 04:24 | 21.77429 | -87.68744 | 13765 ft | 327 kts | 123° |
| 2026-05-09 04:25 | 21.76229 | -87.66676 | 13381 ft | 325 kts | 123° |
| 2026-05-09 04:25 | 21.75038 | -87.64624 | 12993 ft | 322 kts | 123° |
| 2026-05-09 04:25 | 21.74038 | -87.62893 | 12670 ft | 320 kts | 123° |
| 2026-05-09 04:26 | 21.72866 | -87.60870 | 12283 ft | 317 kts | 123° |
| 2026-05-09 04:26 | 21.71703 | -87.58865 | 11900 ft | 315 kts | 123° |
| 2026-05-09 04:26 | 21.70548 | -87.56876 | 11523 ft | 313 kts | 123° |
| 2026-05-09 04:26 | 21.69399 | -87.54900 | 11147 ft | 310 kts | 123° |
| 2026-05-09 04:27 | 21.68262 | -87.52944 | 10804 ft | 306 kts | 123° |
| 2026-05-09 04:27 | 21.67154 | -87.51040 | 10506 ft | 296 kts | 123° |
| 2026-05-09 04:27 | 21.66089 | -87.49206 | 10029 ft | 288 kts | 123° |
| 2026-05-09 04:27 | 21.65057 | -87.47429 | 9668 ft | 273 kts | 123° |
| 2026-05-09 04:28 | 21.63909 | -87.45830 | 9337 ft | 270 kts | 135° |
| 2026-05-09 04:28 | 21.62482 | -87.44535 | 9002 ft | 268 kts | 141° |
| 2026-05-09 04:28 | 21.61026 | -87.43297 | 8665 ft | 266 kts | 141° |
| 2026-05-09 04:28 | 21.59582 | -87.42061 | 8337 ft | 265 kts | 141° |
| 2026-05-09 04:29 | 21.58150 | -87.40834 | 8000 ft | 263 kts | 141° |
| 2026-05-09 04:29 | 21.56719 | -87.39607 | 7670 ft | 263 kts | 141° |
| 2026-05-09 04:29 | 21.55287 | -87.38382 | 7335 ft | 261 kts | 141° |
| 2026-05-09 04:29 | 21.53870 | -87.37172 | 7004 ft | 260 kts | 141° |
| 2026-05-09 04:30 | 21.52458 | -87.35964 | 6674 ft | 258 kts | 141° |
| 2026-05-09 04:30 | 21.51057 | -87.34766 | 6349 ft | 257 kts | 141° |
| 2026-05-09 04:30 | 21.49666 | -87.33577 | 6024 ft | 255 kts | 141° |
| 2026-05-09 04:30 | 21.48286 | -87.32392 | 5697 ft | 253 kts | 140° |
| 2026-05-09 04:31 | 21.46916 | -87.31217 | 5376 ft | 251 kts | 140° |
| 2026-05-09 04:31 | 21.45557 | -87.30053 | 5055 ft | 249 kts | 141° |
| 2026-05-09 04:31 | 21.44212 | -87.28902 | 4738 ft | 247 kts | 140° |
| 2026-05-09 04:31 | 21.42894 | -87.27777 | 4436 ft | 244 kts | 141° |
| 2026-05-09 04:32 | 21.41567 | -87.26641 | 4233 ft | 233 kts | 140° |
| 2026-05-09 04:32 | 21.40352 | -87.25598 | 4089 ft | 221 kts | 140° |
| 2026-05-09 04:32 | 21.39150 | -87.24569 | 3997 ft | 217 kts | 141° |
| 2026-05-09 04:32 | 21.37947 | -87.23593 | 4018 ft | 222 kts | 148° |
| 2026-05-09 04:33 | 21.36569 | -87.22830 | 4022 ft | 224 kts | 152° |
| 2026-05-09 04:33 | 21.35175 | -87.22080 | 4022 ft | 223 kts | 151° |
| 2026-05-09 04:33 | 21.33790 | -87.21329 | 4021 ft | 224 kts | 151° |
| 2026-05-09 04:33 | 21.32404 | -87.20577 | 4021 ft | 224 kts | 151° |
| 2026-05-09 04:34 | 21.31010 | -87.19823 | 4023 ft | 225 kts | 151° |
| 2026-05-09 04:34 | 21.29601 | -87.19083 | 4020 ft | 226 kts | 156° |
| 2026-05-09 04:34 | 21.28106 | -87.18500 | 3657 ft | 231 kts | 158° |
| 2026-05-09 04:34 | 21.26621 | -87.17931 | 3274 ft | 222 kts | 158° |
| 2026-05-09 04:35 | 21.25167 | -87.17376 | 2934 ft | 221 kts | 158° |
| 2026-05-09 04:35 | 21.23749 | -87.16832 | 2630 ft | 215 kts | 158° |
| 2026-05-09 04:35 | 21.22472 | -87.16339 | 2298 ft | 213 kts | 156° |
| 2026-05-09 04:35 | 21.21210 | -87.15537 | 2001 ft | 205 kts | 137° |
| 2026-05-09 04:36 | 21.20307 | -87.14383 | 1993 ft | 202 kts | 123° |
| 2026-05-09 04:36 | 21.19531 | -87.13135 | 1995 ft | 201 kts | 123° |
| 2026-05-09 04:36 | 21.18796 | -87.11954 | 2009 ft | 179 kts | 123° |
| 2026-05-09 04:36 | 21.18150 | -87.10915 | 1995 ft | 160 kts | 123° |
| 2026-05-09 04:37 | 21.17542 | -87.09942 | 1996 ft | 154 kts | 124° |
| 2026-05-09 04:37 | 21.16960 | -87.09007 | 2000 ft | 152 kts | 123° |
| 2026-05-09 04:37 | 21.16376 | -87.08070 | 2001 ft | 151 kts | 123° |
| 2026-05-09 04:37 | 21.15794 | -87.07135 | 2003 ft | 151 kts | 123° |
| 2026-05-09 04:38 | 21.15211 | -87.06202 | 1951 ft | 151 kts | 123° |
| 2026-05-09 04:38 | 21.14627 | -87.05266 | 1891 ft | 150 kts | 123° |
| 2026-05-09 04:38 | 21.14046 | -87.04335 | 1843 ft | 150 kts | 123° |
| 2026-05-09 04:38 | 21.13466 | -87.03403 | 1790 ft | 150 kts | 123° |
| 2026-05-09 04:39 | 21.12888 | -87.02476 | 1740 ft | 149 kts | 123° |
| 2026-05-09 04:39 | 21.12317 | -87.01562 | 1687 ft | 149 kts | 123° |
| 2026-05-09 04:39 | 21.11741 | -87.00638 | 1639 ft | 146 kts | 123° |
| 2026-05-09 04:39 | 21.11182 | -86.99742 | 1586 ft | 143 kts | 123° |
| 2026-05-09 04:40 | 21.10629 | -86.98858 | 1530 ft | 142 kts | 124° |
| 2026-05-09 04:40 | 21.10074 | -86.97968 | 1467 ft | 145 kts | 124° |
| 2026-05-09 04:40 | 21.09508 | -86.97064 | 1410 ft | 145 kts | 124° |
| 2026-05-09 04:40 | 21.08949 | -86.96168 | 1344 ft | 145 kts | 124° |
| 2026-05-09 04:41 | 21.08385 | -86.95266 | 1290 ft | 145 kts | 124° |
| 2026-05-09 04:41 | 21.08014 | -86.94671 | 1213 ft | 145 kts | 124° |
| 2026-05-09 04:41 | 21.07303 | -86.93534 | 1014 ft | 145 kts | 124° |
| 2026-05-09 04:41 | 21.06744 | -86.92639 | 830 ft | 145 kts | 124° |
| 2026-05-09 04:42 | 21.06178 | -86.91722 | 675 ft | 151 kts | 123° |
| 2026-05-09 04:42 | 21.05602 | -86.90775 | 538 ft | 151 kts | 124° |
| 2026-05-09 04:42 | 21.05017 | -86.89855 | 316 ft | 147 kts | 125° |
| 2026-05-09 04:42 | 21.04448 | -86.88970 | 63 ft | 139 kts | 125° |
| 2026-05-09 04:43 | 21.03978 | -86.88195 | 34 ft | 104 kts | 120° |
| 2026-05-09 04:43 | 21.03744 | -86.87812 | 33 ft | 32 kts | 124° |
| 2026-05-09 04:43 | 21.03627 | -86.87597 | 36 ft | 29 kts | 111° |
| 2026-05-09 04:43 | 21.03599 | -86.87421 | 34 ft | 19 kts | 87° |
| 2026-05-09 04:44 | 21.03661 | -86.87330 | 30 ft | 13 kts | 30° |
| 2026-05-09 04:44 | 21.03721 | -86.87348 | 30 ft | 8 kts | 302° |
| 2026-05-09 04:44 | 21.03746 | -86.87392 | 30 ft | 7 kts | 302° |
| 2026-05-09 04:44 | 21.03758 | -86.87411 | 30 ft | 2 kts | 303° |
| 2026-05-09 04:45 | 21.03767 | -86.87426 | 30 ft | 3 kts | 304° |
| 2026-05-09 04:45 | 21.03784 | -86.87451 | 30 ft | 5 kts | 304° |
| 2026-05-09 04:45 | 21.03806 | -86.87487 | 30 ft | 6 kts | 303° |
| 2026-05-09 04:45 | 21.03818 | -86.87507 | 30 ft | 2 kts | 302° |
| 2026-05-09 04:46 | 21.03825 | -86.87527 | 30 ft | 4 kts | 285° |
| 2026-05-09 04:46 | 21.03825 | -86.87547 | 30 ft | 4 kts | 265° |
| 2026-05-09 04:46 | 21.03849 | -86.87571 | 30 ft | 4 kts | 338° |
| 2026-05-09 04:46 | 21.03872 | -86.87574 | 30 ft | 3 kts | 352° |
| 2026-05-09 04:47 | 21.03878 | -86.87575 | 30 ft | 0 kts | 352° |
| 2026-05-09 04:47 | 21.03886 | -86.87576 | 30 ft | 2 kts | 353° |
| 2026-05-09 04:47 | 21.03894 | -86.87577 | 30 ft | 2 kts | 353° |
| 2026-05-09 04:47 | 21.03903 | -86.87578 | 29 ft | 0 kts | 354° |